Time;durP1;ratioP1;P1;durP2;ratioP2;P2;SDS_P1;SDS_P2;PMS_P1;PMS_P2;Temp;Humidity;BMP_temperature;BMP_pressure;BME280_temperature;BME280_humidity;BME280_pressure;Samples;Min_cycle;Max_cycle;Signal;HPM_P1;HPM_P2
2022/11/01 00:01:49;;;;;;;42.40;14.80;;;;;;;9.98;61.77;101090.28;5005777;28;20039;-71
2022/11/01 00:04:15;;;;;;;36.88;14.07;;;;;;;10.33;60.77;101093.44;4994243;28;20418;-71
2022/11/01 00:06:41;;;;;;;44.13;16.60;;;;;;;10.38;60.23;101088.91;5023077;28;20057;-70
2022/11/01 00:09:07;;;;;;;36.17;15.30;;;;;;;10.28;60.66;101084.88;5025408;28;20685;-66
2022/11/01 00:11:32;;;;;;;38.55;15.63;;;;;;;10.21;60.72;101085.13;5024365;28;20865;-64
2022/11/01 00:13:58;;;;;;;35.45;14.68;;;;;;;10.28;60.81;101084.88;5019210;28;20046;-65
2022/11/01 00:16:24;;;;;;;45.55;17.00;;;;;;;10.35;60.18;101078.56;5026109;28;20544;-66
2022/11/01 00:18:49;;;;;;;34.92;15.50;;;;;;;10.25;60.90;101080.63;5008673;28;20236;-66
2022/11/01 00:21:15;;;;;;;33.30;15.07;;;;;;;10.20;60.55;101082.56;5008055;28;20039;-65
2022/11/01 00:23:41;;;;;;;34.58;16.20;;;;;;;10.26;60.91;101081.47;5023249;28;20494;-66
2022/11/01 00:26:08;;;;;;;34.05;14.98;;;;;;;10.37;60.15;101076.72;5026036;28;20036;-65
2022/11/01 00:28:34;;;;;;;40.15;15.73;;;;;;;10.20;60.86;101072.97;4998257;28;20056;-71
2022/11/01 00:31:00;;;;;;;39.00;16.77;;;;;;;10.22;60.93;101065.91;5001943;28;20506;-70
2022/11/01 00:33:26;;;;;;;35.03;15.40;;;;;;;10.24;60.70;101065.03;5003122;28;20155;-71
2022/11/01 00:35:52;;;;;;;43.10;16.35;;;;;;;10.26;60.87;101057.97;5029735;28;20033;-67
2022/11/01 00:38:18;;;;;;;41.65;16.40;;;;;;;10.36;60.04;101054.97;5029616;28;20417;-66
2022/11/01 00:40:44;;;;;;;42.53;16.80;;;;;;;10.18;60.97;101053.88;5027978;28;20071;-66
2022/11/01 00:43:10;;;;;;;36.00;15.77;;;;;;;10.27;60.76;101054.47;5026296;28;20132;-67
2022/11/01 00:45:36;;;;;;;38.08;16.08;;;;;;;10.12;61.14;101053.22;5026038;28;20036;-68
2022/11/01 00:48:02;;;;;;;38.33;16.58;;;;;;;10.16;61.28;101050.47;5016472;28;20473;-68
2022/11/01 00:50:28;;;;;;;45.92;18.60;;;;;;;10.05;61.56;101047.38;5029433;28;20029;-67
2022/11/01 00:52:53;;;;;;;44.75;16.63;;;;;;;10.25;60.86;101032.75;5007129;28;20494;-69
2022/11/01 00:55:19;;;;;;;45.83;17.05;;;;;;;9.77;62.22;101032.66;5025752;28;20040;-71
2022/11/01 00:57:48;;;;;;;42.95;17.48;;;;;;;10.05;61.53;101034.31;5024608;28;20069;-70
2022/11/01 01:00:15;;;;;;;40.42;16.88;;;;;;;10.21;61.09;101032.00;5030127;28;20041;-71
2022/11/01 01:02:40;;;;;;;35.05;16.35;;;;;;;10.15;61.57;101027.03;5024819;28;20116;-71
2022/11/01 01:05:07;;;;;;;39.88;17.33;;;;;;;10.29;60.66;101016.91;5028814;28;20398;-71
2022/11/01 01:07:32;;;;;;;41.05;17.45;;;;;;;10.20;60.94;101023.31;5025431;28;20693;-72
2022/11/01 01:09:58;;;;;;;48.28;18.13;;;;;;;10.45;60.07;101014.59;5028912;28;20129;-72
2022/11/01 01:12:23;;;;;;;43.75;18.33;;;;;;;10.32;60.96;101018.56;5028199;28;20045;-71
2022/11/01 01:14:49;;;;;;;41.03;17.13;;;;;;;10.28;60.69;101027.41;5025957;28;20038;-71
2022/11/01 01:17:14;;;;;;;42.67;17.30;;;;;;;9.93;61.66;101021.72;5028674;28;20051;-71
2022/11/01 01:19:40;;;;;;;50.70;18.73;;;;;;;10.38;60.59;101023.56;5026345;28;20052;-72
2022/11/01 01:22:06;;;;;;;50.72;18.60;;;;;;;10.53;60.24;101028.22;5025726;28;20067;-71
2022/11/01 01:24:31;;;;;;;43.22;17.55;;;;;;;10.47;60.44;101018.00;5011424;28;20035;-71
2022/11/01 01:26:57;;;;;;;42.70;17.85;;;;;;;10.53;59.77;101017.78;5013971;28;20049;-71
2022/11/01 01:29:22;;;;;;;46.20;17.88;;;;;;;10.46;60.37;101000.63;5025173;28;20049;-71
2022/11/01 01:31:51;;;;;;;39.90;18.73;;;;;;;10.40;60.55;101004.31;5027935;28;20072;-71
2022/11/01 01:34:17;;;;;;;42.15;18.30;;;;;;;10.33;60.40;100997.63;5008491;28;20040;-71
2022/11/01 01:36:43;;;;;;;42.53;18.58;;;;;;;10.33;60.55;100991.53;5029099;28;20037;-71
2022/11/01 01:39:09;;;;;;;46.88;19.08;;;;;;;10.31;60.55;100985.53;5025977;28;20048;-70
2022/11/01 01:44:50;;;;;;;44.35;16.75;;;;;;;10.43;60.25;100969.38;5026591;28;20845;-70
2022/11/01 01:47:31;;;;;;;42.45;18.25;;;;;;;10.36;60.41;100968.75;5028737;28;20040;-69
2022/11/01 01:50:07;;;;;;;44.65;16.92;;;;;;;10.45;60.01;100966.72;5027381;28;20514;-69
2022/11/01 01:52:38;;;;;;;46.50;19.20;;;;;;;10.53;59.95;100960.28;5026562;28;20041;-69
2022/11/01 01:55:07;;;;;;;45.28;16.35;;;;;;;10.34;60.40;100967.97;5006837;28;20056;-69
2022/11/01 01:57:34;;;;;;;40.42;18.20;;;;;;;10.51;59.93;100956.88;5025647;28;20040;-66
2022/11/01 01:59:59;;;;;;;38.72;19.35;;;;;;;10.54;59.84;100961.97;5025737;28;20037;-67
2022/11/01 02:02:25;;;;;;;41.30;19.13;;;;;;;10.60;59.62;100951.28;5025919;28;20049;-66
2022/11/01 02:04:56;;;;;;;42.15;17.67;;;;;;;10.58;59.55;100953.09;5012270;28;20025;-66
2022/11/01 02:07:21;;;;;;;47.38;17.83;;;;;;;10.45;59.84;100953.66;5027128;28;20041;-66
2022/11/01 02:09:47;;;;;;;33.35;16.48;;;;;;;10.55;59.72;100948.00;5026180;28;20549;-65
2022/11/01 02:12:13;;;;;;;42.72;19.58;;;;;;;10.59;59.22;100947.00;5027912;28;20037;-65
2022/11/01 02:14:41;;;;;;;42.95;18.65;;;;;;;10.28;60.41;100946.44;5024447;28;20051;-65
2022/11/01 02:17:26;;;;;;;41.78;18.27;;;;;;;10.46;59.93;100937.91;5009672;28;20072;-65
2022/11/01 02:20:05;;;;;;;46.28;18.02;;;;;;;10.50;59.62;100939.47;5012022;28;20041;-66
2022/11/01 02:22:52;;;;;;;43.45;17.95;;;;;;;10.57;59.38;100938.34;5023764;28;20156;-66
2022/11/01 02:25:23;;;;;;;40.97;16.80;;;;;;;10.62;59.20;100936.41;5007760;28;20089;-67
2022/11/01 02:28:28;;;;;;;39.90;17.23;;;;;;;10.72;58.80;100926.41;5025352;28;20079;-67
2022/11/01 02:31:15;;;;;;;41.10;16.38;;;;;;;10.62;59.20;100928.56;5025575;28;20060;-67
2022/11/01 02:33:51;;;;;;;40.08;16.63;;;;;;;10.78;58.67;100927.94;5029591;28;20415;-67
2022/11/01 02:36:28;;;;;;;41.13;16.83;;;;;;;10.73;58.65;100916.84;5027906;28;20092;-67
2022/11/01 02:39:06;;;;;;;39.15;17.48;;;;;;;10.77;58.70;100915.78;5024152;28;20354;-67
2022/11/01 02:41:40;;;;;;;37.20;16.20;;;;;;;10.52;59.48;100911.53;5027070;28;20060;-67
2022/11/01 02:44:15;;;;;;;39.67;15.95;;;;;;;10.68;58.80;100903.09;5027658;28;20405;-67
2022/11/01 02:47:00;;;;;;;41.40;15.57;;;;;;;10.95;58.00;100898.53;5026454;28;20029;-67
2022/11/01 02:49:41;;;;;;;40.63;17.05;;;;;;;10.92;58.17;100893.44;5008970;28;20033;-68
2022/11/01 02:52:12;;;;;;;37.38;15.45;;;;;;;10.93;58.28;100890.75;5011252;28;20128;-68
2022/11/01 02:54:39;;;;;;;36.78;17.25;;;;;;;11.11;57.53;100883.06;5023721;28;20234;-65
2022/11/01 02:57:36;;;;;;;33.15;15.65;;;;;;;11.07;57.70;100876.25;5026548;28;20112;-67
2022/11/01 03:00:35;;;;;;;34.70;14.73;;;;;;;10.95;57.80;100862.78;5026408;28;20037;-66
2022/11/01 03:03:21;;;;;;;29.38;14.60;;;;;;;11.22;57.09;100859.91;4981438;28;20556;-66
2022/11/01 03:05:57;;;;;;;33.80;15.57;;;;;;;11.16;57.26;100865.41;5021464;28;20037;-67
2022/11/01 03:08:30;;;;;;;30.58;14.55;;;;;;;11.09;57.35;100863.97;5025006;28;20052;-67
2022/11/01 03:11:04;;;;;;;44.28;15.75;;;;;;;11.13;56.97;100855.06;5024662;28;20047;-67
2022/11/01 03:14:00;;;;;;;30.58;14.73;;;;;;;11.07;56.94;100844.88;5025396;28;20524;-66
2022/11/01 03:16:38;;;;;;;28.80;14.10;;;;;;;11.29;56.68;100845.66;5025962;28;20114;-66
2022/11/01 03:19:25;;;;;;;27.42;14.35;;;;;;;11.42;56.22;100843.34;5007577;28;20119;-66
2022/11/01 03:22:12;;;;;;;35.97;13.82;;;;;;;11.27;56.63;100844.88;5007824;28;20529;-66
2022/11/01 03:28:04;;;;;;;36.90;15.80;;;;;;;11.05;57.50;100837.94;5023532;28;20082;-65
2022/11/01 03:30:33;;;;;;;34.17;13.50;;;;;;;11.21;56.75;100832.03;5008111;28;20030;-66
2022/11/01 03:32:58;;;;;;;30.48;14.55;;;;;;;11.07;57.35;100829.19;5022920;28;20036;-65
2022/11/01 03:35:28;;;;;;;34.67;14.75;;;;;;;11.05;57.46;100837.94;5022730;28;20047;-69
2022/11/01 03:37:57;;;;;;;31.92;14.45;;;;;;;10.92;57.63;100828.91;5023384;28;20048;-63
2022/11/01 03:40:26;;;;;;;31.17;14.10;;;;;;;11.27;56.34;100823.94;5009646;28;20028;-64
2022/11/01 03:42:53;;;;;;;31.98;15.43;;;;;;;11.20;56.74;100823.34;4996867;28;20058;-64
2022/11/01 03:45:23;;;;;;;34.47;15.32;;;;;;;10.94;57.53;100829.69;5008847;28;20044;-65
2022/11/01 03:47:49;;;;;;;28.08;13.68;;;;;;;11.09;57.17;100824.75;5023587;28;20125;-65
2022/11/01 03:50:25;;;;;;;31.27;13.95;;;;;;;11.12;57.19;100829.81;5027105;28;20112;-68
2022/11/01 03:52:51;;;;;;;32.60;14.40;;;;;;;10.82;57.88;100825.84;5022315;28;20053;-67
2022/11/01 03:55:18;;;;;;;32.55;12.27;;;;;;;11.30;56.08;100834.25;5024296;28;20036;-67
2022/11/01 03:57:44;;;;;;;27.52;13.70;;;;;;;11.35;56.08;100823.59;5024620;28;20040;-66
2022/11/01 04:00:15;;;;;;;27.02;12.85;;;;;;;11.28;56.51;100820.38;5014238;28;20211;-71
2022/11/01 04:02:42;;;;;;;30.05;12.35;;;;;;;11.36;56.28;100830.53;5022233;28;20040;-72
2022/11/01 04:05:08;;;;;;;31.42;14.70;;;;;;;11.33;56.05;100831.53;5025654;28;20037;-73
2022/11/01 04:07:33;;;;;;;27.58;12.15;;;;;;;11.05;57.19;100831.84;5030025;28;20670;-68
2022/11/01 04:09:59;;;;;;;21.00;11.13;;;;;;;11.22;56.45;100824.13;5027757;28;20029;-69
2022/11/01 04:12:25;;;;;;;26.73;11.93;;;;;;;11.44;55.82;100829.28;5030765;28;20277;-68
2022/11/01 04:20:34;;;;;;;21.00;9.57;;;;;;;11.70;55.09;100845.56;5028249;28;20486;-68
2022/11/01 04:23:07;;;;;;;18.23;9.48;;;;;;;11.79;54.72;100850.41;5029594;28;20041;-66
2022/11/01 04:25:33;;;;;;;22.42;9.68;;;;;;;11.63;55.33;100852.00;5028479;28;20257;-67
2022/11/01 04:27:59;;;;;;;17.25;8.32;;;;;;;11.85;54.62;100850.16;5026907;28;20041;-67
2022/11/01 04:30:26;;;;;;;20.35;8.70;;;;;;;11.70;54.66;100840.34;5009217;28;20127;-67
2022/11/01 04:32:52;;;;;;;22.75;9.23;;;;;;;11.88;54.47;100844.75;5027746;28;20040;-69
2022/11/01 04:35:18;;;;;;;19.73;9.10;;;;;;;11.91;54.08;100850.78;5025202;28;20025;-68
2022/11/01 04:37:43;;;;;;;19.83;8.75;;;;;;;11.61;55.14;100848.59;5027411;28;20044;-66
2022/11/01 04:40:10;;;;;;;18.38;9.10;;;;;;;11.56;55.45;100848.81;5029293;28;20041;-67
2022/11/01 04:42:36;;;;;;;17.85;8.07;;;;;;;11.53;56.26;100845.47;5025354;28;20066;-67
2022/11/01 04:45:05;;;;;;;14.75;8.45;;;;;;;11.48;56.74;100839.59;5028916;28;20159;-67
2022/11/01 04:47:31;;;;;;;15.35;8.75;;;;;;;11.16;57.58;100840.09;5025559;28;20048;-67
2022/11/01 04:49:56;;;;;;;16.75;7.40;;;;;;;11.12;58.19;100841.13;5028198;28;20330;-65
2022/11/01 04:52:22;;;;;;;19.95;7.60;;;;;;;11.28;57.67;100837.84;5009102;28;20449;-66
2022/11/01 04:54:47;;;;;;;15.80;7.82;;;;;;;11.41;57.04;100829.41;5009597;28;20045;-65
2022/11/01 04:57:23;;;;;;;18.40;7.50;;;;;;;11.07;58.55;100829.19;5028864;28;20120;-75
2022/11/01 04:59:53;;;;;;;15.05;8.45;;;;;;;11.34;57.75;100824.50;5010048;28;20186;-75
2022/11/01 05:02:19;;;;;;;14.63;7.45;;;;;;;11.39;57.80;100820.75;5012177;28;20509;-75
2022/11/01 05:04:45;;;;;;;20.60;7.82;;;;;;;11.50;57.36;100820.28;5027212;28;20555;-75
2022/11/01 05:07:11;;;;;;;15.45;7.72;;;;;;;11.53;57.42;100816.69;5016336;28;20060;-76
2022/11/01 05:09:36;;;;;;;12.90;7.05;;;;;;;11.42;57.74;100812.78;5014527;28;20044;-67
2022/11/01 05:12:02;;;;;;;14.52;6.93;;;;;;;11.76;56.45;100813.03;5028738;28;20112;-69
2022/11/01 05:14:27;;;;;;;17.58;8.02;;;;;;;11.71;57.01;100818.50;5025712;28;20131;-67
2022/11/01 05:16:57;;;;;;;11.48;7.07;;;;;;;11.50;57.30;100816.81;5024116;28;20196;-67
2022/11/01 05:19:22;;;;;;;15.48;6.35;;;;;;;11.91;55.62;100811.50;5027896;28;20048;-68
2022/11/01 05:21:48;;;;;;;11.80;6.55;;;;;;;11.85;55.76;100807.41;5025488;28;20026;-69
2022/11/01 05:24:14;;;;;;;14.20;7.38;;;;;;;11.91;55.39;100806.25;5016100;28;20144;-69
2022/11/01 05:26:40;;;;;;;10.80;6.63;;;;;;;12.03;54.89;100809.16;5017241;28;20040;-69
2022/11/01 05:29:05;;;;;;;15.95;6.20;;;;;;;11.83;55.51;100810.09;5015125;28;20095;-69
2022/11/01 05:31:31;;;;;;;14.77;6.72;;;;;;;11.75;55.35;100806.94;5026399;28;20045;-68
2022/11/01 05:33:56;;;;;;;14.80;5.80;;;;;;;11.87;54.89;100810.81;5006995;28;20215;-69
2022/11/01 05:36:22;;;;;;;12.30;5.53;;;;;;;11.60;55.57;100811.13;5012794;28;20044;-71
2022/11/01 05:38:47;;;;;;;14.43;6.05;;;;;;;11.78;55.07;100808.63;5012797;28;20052;-70
2022/11/01 05:41:13;;;;;;;9.50;5.60;;;;;;;11.83;54.57;100810.09;5028232;28;20573;-73
2022/11/01 05:43:38;;;;;;;17.75;5.65;;;;;;;11.88;54.42;100815.94;5024247;28;20546;-73
2022/11/01 05:46:04;;;;;;;8.70;5.20;;;;;;;11.67;55.07;100812.53;5012305;28;20063;-77
2022/11/01 05:48:30;;;;;;;18.10;5.85;;;;;;;11.59;55.33;100819.03;5032539;28;20053;-76
2022/11/01 05:50:55;;;;;;;13.02;6.32;;;;;;;11.61;55.26;100809.34;5013937;28;20082;-75
2022/11/01 05:53:21;;;;;;;9.23;5.70;;;;;;;11.90;54.01;100812.44;5003183;28;20136;-74
2022/11/01 05:55:46;;;;;;;12.65;5.18;;;;;;;11.96;53.71;100820.84;5010986;28;20067;-75
2022/11/01 05:58:12;;;;;;;11.93;5.30;;;;;;;11.72;54.76;100822.78;5028360;28;20042;-73
2022/11/01 06:00:38;;;;;;;12.88;5.80;;;;;;;11.63;54.89;100823.22;5025909;28;20064;-74
2022/11/01 06:03:04;;;;;;;9.20;4.30;;;;;;;11.64;54.69;100817.03;5027074;28;20042;-76
2022/11/01 06:05:30;;;;;;;12.85;5.53;;;;;;;11.80;54.29;100828.56;5026854;28;20044;-72
2022/11/01 06:07:56;;;;;;;7.88;4.28;;;;;;;11.86;54.10;100830.03;5026256;28;20053;-74
2022/11/01 06:10:22;;;;;;;10.20;4.35;;;;;;;11.83;54.29;100825.78;5008015;28;20037;-75
2022/11/01 06:12:48;;;;;;;10.30;4.85;;;;;;;11.65;54.78;100826.63;4993947;28;20037;-75
2022/11/01 06:15:13;;;;;;;10.07;4.35;;;;;;;11.71;54.87;100826.34;5011115;28;20048;-69
2022/11/01 06:17:39;;;;;;;10.88;5.07;;;;;;;11.67;54.64;100823.00;5005549;28;20052;-67
2022/11/01 06:20:05;;;;;;;15.90;5.60;;;;;;;12.01;53.82;100834.56;5019987;28;20040;-67
2022/11/01 06:22:30;;;;;;;11.32;5.32;;;;;;;12.00;53.99;100842.50;5022890;28;20041;-68
2022/11/01 06:24:56;;;;;;;11.52;5.60;;;;;;;11.93;54.26;100843.69;5024780;28;20058;-69
2022/11/01 06:27:21;;;;;;;9.75;4.28;;;;;;;11.96;54.04;100835.72;5024707;28;20433;-67
2022/11/01 06:29:47;;;;;;;12.35;4.95;;;;;;;11.92;54.10;100842.88;5005709;28;20037;-68
2022/11/01 06:32:12;;;;;;;7.82;4.38;;;;;;;12.08;53.85;100840.38;5024555;28;20128;-69
2022/11/01 06:34:37;;;;;;;18.40;8.93;;;;;;;11.96;54.21;100840.97;5010951;28;20043;-69
2022/11/01 06:37:03;;;;;;;5.53;3.70;;;;;;;11.94;54.28;100851.50;5001237;28;20039;-68
2022/11/01 06:39:29;;;;;;;10.48;4.93;;;;;;;12.16;53.78;100850.50;5013900;28;20673;-69
2022/11/01 06:41:54;;;;;;;8.55;3.40;;;;;;;12.15;53.96;100852.25;5026918;28;20037;-68
2022/11/01 06:44:20;;;;;;;7.32;3.90;;;;;;;12.26;53.51;100852.59;5023022;28;20330;-69
2022/11/01 06:46:45;;;;;;;15.15;4.28;;;;;;;12.19;53.79;100848.56;5025322;28;20033;-69
2022/11/01 06:49:11;;;;;;;6.40;2.65;;;;;;;12.08;54.23;100853.47;5026736;28;20276;-70
2022/11/01 06:51:36;;;;;;;18.55;8.32;;;;;;;12.23;53.87;100865.84;5024485;28;20033;-70
2022/11/01 06:54:02;;;;;;;7.18;4.10;;;;;;;12.19;54.08;100864.28;5000457;28;20132;-69
2022/11/01 06:56:27;;;;;;;10.02;2.97;;;;;;;12.44;53.55;100871.00;5013572;28;20125;-69
2022/11/01 06:58:55;;;;;;;12.63;4.25;;;;;;;12.19;54.31;100874.78;5023752;28;20037;-69
2022/11/01 07:01:21;;;;;;;20.45;8.85;;;;;;;12.37;53.95;100877.47;4998767;28;20052;-66
2022/11/01 07:03:53;;;;;;;10.90;4.05;;;;;;;12.43;54.08;100874.56;5004777;28;20275;-64
2022/11/01 07:06:19;;;;;;;9.77;3.50;;;;;;;12.43;53.97;100883.25;5025282;28;20116;-67
2022/11/01 07:08:45;;;;;;;10.15;2.65;;;;;;;11.87;55.83;100890.22;5024004;28;20055;-70
2022/11/01 07:11:10;;;;;;;7.53;3.08;;;;;;;12.50;54.02;100884.66;5025426;28;20029;-65
2022/11/01 07:13:37;;;;;;;13.50;4.65;;;;;;;12.63;53.66;100895.41;5024057;28;20090;-67
2022/11/01 07:16:04;;;;;;;6.97;2.47;;;;;;;12.37;54.09;100888.78;5023732;28;20076;-66
2022/11/01 07:18:30;;;;;;;10.43;2.60;;;;;;;12.39;54.54;100902.66;5025481;28;20156;-66
2022/11/01 07:20:56;;;;;;;10.00;2.55;;;;;;;12.74;53.51;100899.34;5024433;28;20068;-65
2022/11/01 07:23:22;;;;;;;4.05;2.80;;;;;;;12.47;54.36;100905.78;5007092;28;20063;-71
2022/11/01 07:25:51;;;;;;;7.95;2.90;;;;;;;12.34;54.58;100904.66;5024445;28;20029;-71
2022/11/01 07:28:17;;;;;;;6.32;2.70;;;;;;;12.71;53.53;100905.53;5015174;28;20099;-67
2022/11/01 07:30:46;;;;;;;9.57;2.60;;;;;;;12.28;54.69;100913.66;5023025;28;20120;-65
2022/11/01 07:33:12;;;;;;;8.38;3.08;;;;;;;12.31;54.54;100915.28;5026448;28;20480;-72
2022/11/01 07:35:38;;;;;;;5.80;3.25;;;;;;;12.10;55.20;100919.75;5020970;28;20044;-71
2022/11/01 07:38:04;;;;;;;5.97;2.85;;;;;;;12.50;53.93;100920.50;4995674;28;20286;-71
2022/11/01 07:40:30;;;;;;;3.42;2.13;;;;;;;12.57;53.66;100924.53;5001434;28;20417;-73
2022/11/01 07:42:58;;;;;;;8.63;2.25;;;;;;;12.88;52.87;100937.06;5023442;28;22213;-71
2022/11/01 07:45:25;;;;;;;6.32;1.85;;;;;;;11.98;54.62;100947.34;5024223;28;20509;-71
2022/11/01 07:47:52;;;;;;;3.47;1.15;;;;;;;12.21;53.46;100943.69;4995758;28;20091;-66
2022/11/01 07:50:18;;;;;;;2.58;1.00;;;;;;;11.65;53.58;100952.28;5007134;28;20083;-64
2022/11/01 07:52:43;;;;;;;2.95;0.88;;;;;;;11.80;52.58;100935.94;4995790;28;20041;-66
2022/11/01 07:55:09;;;;;;;2.50;1.15;;;;;;;12.18;51.42;100946.47;5023878;28;20111;-65
2022/11/01 07:57:39;;;;;;;5.10;0.70;;;;;;;11.56;52.42;100931.75;5008256;28;20651;-65
2022/11/01 08:00:06;;;;;;;1.48;0.30;;;;;;;11.64;51.60;100948.81;5007302;28;20038;-68
2022/11/01 08:02:37;;;;;;;5.72;0.55;;;;;;;11.87;50.65;100954.84;5019378;28;20444;-67
2022/11/01 08:05:03;;;;;;;2.35;0.43;;;;;;;11.40;51.90;100962.94;5020130;28;20033;-65
2022/11/01 08:07:29;;;;;;;2.00;0.60;;;;;;;11.50;51.57;100968.63;5024180;28;20069;-67
2022/11/01 08:09:54;;;;;;;2.05;0.57;;;;;;;11.00;52.54;100962.81;4996847;28;20029;-69
2022/11/01 08:12:19;;;;;;;2.78;0.30;;;;;;;11.33;51.76;100966.72;5019852;28;20506;-67
2022/11/01 08:14:45;;;;;;;3.28;0.50;;;;;;;11.51;51.77;100986.03;5021030;28;20033;-67
2022/11/01 08:17:11;;;;;;;6.25;0.60;;;;;;;12.70;49.36;100975.50;5011929;28;20037;-67
2022/11/01 08:19:36;;;;;;;3.35;0.75;;;;;;;14.01;46.05;100987.41;5006018;28;20060;-68
2022/11/01 08:22:02;;;;;;;3.78;0.68;;;;;;;13.58;46.30;100994.88;5023911;28;20037;-67
2022/11/01 08:24:27;;;;;;;1.70;0.30;;;;;;;14.05;42.54;100985.44;5007068;28;20026;-67
2022/11/01 08:26:53;;;;;;;2.10;0.55;;;;;;;13.70;43.69;101004.75;5021142;28;20029;-67
2022/11/01 08:29:19;;;;;;;2.65;0.40;;;;;;;14.23;42.60;101008.16;5022631;28;20475;-68
2022/11/01 08:31:46;;;;;;;0.85;0.25;;;;;;;15.10;40.10;100980.56;5023198;28;20029;-67
2022/11/01 08:34:12;;;;;;;1.90;0.60;;;;;;;14.59;41.15;101003.63;5022278;28;20045;-67
2022/11/01 08:36:37;;;;;;;4.20;0.40;;;;;;;14.28;41.00;101016.63;5024848;28;20059;-67
2022/11/01 08:39:04;;;;;;;4.60;1.42;;;;;;;15.02;40.45;101007.34;5004578;28;20029;-67
2022/11/01 08:41:29;;;;;;;2.53;0.15;;;;;;;14.86;39.34;101007.38;5023377;28;20041;-67
2022/11/01 08:43:56;;;;;;;1.67;0.20;;;;;;;14.10;40.72;101020.25;5022069;28;20095;-69
2022/11/01 08:46:22;;;;;;;3.50;0.30;;;;;;;14.15;40.20;101026.09;5024047;28;20034;-69
2022/11/01 08:48:47;;;;;;;5.15;0.20;;;;;;;14.72;39.08;101026.56;5005386;28;20520;-67
2022/11/01 08:51:13;;;;;;;7.03;0.77;;;;;;;14.52;39.17;101018.88;5027671;28;20033;-67
2022/11/01 08:53:38;;;;;;;1.75;0.17;;;;;;;15.56;38.14;101022.72;5027646;28;20498;-67
2022/11/01 08:56:04;;;;;;;2.83;0.10;;;;;;;15.95;37.41;101024.78;5028760;28;20377;-68
2022/11/01 08:58:30;;;;;;;8.93;0.90;;;;;;;15.20;38.01;101020.41;5008789;28;20046;-68
2022/11/01 09:00:55;;;;;;;2.92;0.52;;;;;;;14.21;40.33;101046.81;5015682;28;20032;-66
2022/11/01 09:03:20;;;;;;;2.35;0.30;;;;;;;14.85;39.35;101039.88;5025819;28;20482;-68
2022/11/01 09:05:46;;;;;;;4.50;0.22;;;;;;;14.33;40.26;101046.16;5024740;28;20047;-67
2022/11/01 09:08:11;;;;;;;7.15;0.30;;;;;;;14.60;39.00;101024.59;5026495;28;20052;-67
2022/11/01 09:10:37;;;;;;;3.67;0.20;;;;;;;14.72;39.02;101047.59;5005047;28;20037;-67
2022/11/01 09:13:02;;;;;;;2.20;0.20;;;;;;;14.52;39.17;101050.44;5026370;28;20037;-67
2022/11/01 09:15:28;;;;;;;1.45;0.20;;;;;;;14.17;39.87;101045.28;5024531;28;20079;-68
2022/11/01 09:17:53;;;;;;;4.68;0.25;;;;;;;14.40;40.05;101058.97;5022057;28;20040;-67
2022/11/01 09:20:19;;;;;;;5.32;0.82;;;;;;;14.34;39.39;101052.25;5026081;28;20038;-68
2022/11/01 09:22:44;;;;;;;2.78;0.40;;;;;;;15.00;39.04;101056.59;5004802;28;20589;-67
2022/11/01 09:25:12;;;;;;;1.15;0.38;;;;;;;15.61;38.01;101052.25;5001223;28;20029;-67
2022/11/01 09:27:38;;;;;;;5.32;0.85;;;;;;;14.19;39.53;101056.56;5022643;28;20041;-67
2022/11/01 09:30:04;;;;;;;3.35;1.20;;;;;;;14.30;39.15;101062.09;5025517;28;20037;-67
2022/11/01 09:32:30;;;;;;;5.20;0.40;;;;;;;13.11;40.60;101050.53;5024302;28;20171;-67
2022/11/01 09:34:55;;;;;;;4.72;0.90;;;;;;;12.24;42.07;101074.56;5021308;28;21178;-67
2022/11/01 09:37:21;;;;;;;7.28;0.47;;;;;;;12.23;42.56;101078.13;5023622;28;20055;-68
2022/11/01 09:39:46;;;;;;;8.10;0.52;;;;;;;12.64;41.76;101082.44;5007851;28;20048;-66
2022/11/01 09:42:27;;;;;;;7.85;0.30;;;;;;;12.86;41.76;101063.97;5023812;28;20037;-67
2022/11/01 09:44:56;;;;;;;6.15;0.45;;;;;;;12.61;41.30;101075.56;5024006;28;20036;-67
2022/11/01 09:47:25;;;;;;;3.38;0.20;;;;;;;12.84;40.94;101086.78;5007167;28;20053;-67
2022/11/01 09:50:04;;;;;;;6.68;1.02;;;;;;;13.08;40.81;101090.91;5024519;28;20033;-67
2022/11/01 09:52:29;;;;;;;6.47;0.80;;;;;;;13.34;40.22;101083.56;5022456;28;20041;-68
2022/11/01 09:54:56;;;;;;;8.00;1.20;;;;;;;12.86;40.52;101090.19;5023243;28;21718;-67
2022/11/01 09:57:41;;;;;;;10.30;1.35;;;;;;;12.56;41.22;101098.53;5006038;28;20563;-65
2022/11/01 10:00:12;;;;;;;6.50;0.60;;;;;;;13.35;39.89;101101.00;5009186;28;20200;-67
2022/11/01 10:02:53;;;;;;;8.63;0.85;;;;;;;12.56;41.06;101090.66;5020994;28;20114;-68
2022/11/01 10:06:00;;;;;;;7.75;0.80;;;;;;;12.18;41.32;101101.06;5006114;28;20115;-66
2022/11/01 10:08:48;;;;;;;9.68;1.00;;;;;;;12.62;40.42;101107.88;5014445;28;20053;-67
2022/11/01 10:11:48;;;;;;;7.05;0.60;;;;;;;12.97;39.92;101087.94;5026546;28;20037;-68
2022/11/01 10:14:14;;;;;;;13.00;0.68;;;;;;;13.45;39.18;101110.16;4991971;28;20041;-67
2022/11/01 10:16:43;;;;;;;10.73;1.27;;;;;;;12.38;40.77;101109.81;5016591;28;20052;-68
2022/11/01 10:19:16;;;;;;;8.48;1.50;;;;;;;14.14;38.17;101112.00;5026279;28;20048;-67
2022/11/01 10:21:54;;;;;;;11.50;1.38;;;;;;;13.48;38.40;101104.75;5026180;28;20029;-67
2022/11/01 10:24:25;;;;;;;13.73;0.90;;;;;;;13.00;39.65;101108.75;5024449;28;20041;-67
2022/11/01 10:27:15;;;;;;;10.48;1.05;;;;;;;13.72;39.04;101118.47;5007613;28;20040;-67
2022/11/01 10:29:49;;;;;;;12.15;1.70;;;;;;;13.76;38.67;101119.16;5022193;28;20482;-66
2022/11/01 10:32:36;;;;;;;11.02;1.05;;;;;;;13.65;38.55;101121.47;5026502;28;20453;-70
2022/11/01 10:35:10;;;;;;;14.50;0.80;;;;;;;14.70;36.76;101117.88;5023629;28;20094;-67
2022/11/01 10:38:05;;;;;;;7.03;1.35;;;;;;;13.98;37.36;101139.13;5025437;28;20107;-68
2022/11/01 10:40:40;;;;;;;15.73;1.50;;;;;;;13.08;38.99;101143.38;5020401;28;20163;-68
2022/11/01 10:43:20;;;;;;;9.30;1.08;;;;;;;14.21;37.60;101136.19;5029704;28;20414;-67
2022/11/01 10:45:50;;;;;;;8.13;0.85;;;;;;;13.21;38.73;101135.78;5028074;28;20156;-67
2022/11/01 10:48:33;;;;;;;9.35;1.00;;;;;;;13.60;38.62;101134.81;5029080;28;20048;-66
2022/11/01 10:51:02;;;;;;;12.80;0.75;;;;;;;14.11;38.11;101129.69;5026920;28;20049;-65
2022/11/01 10:53:32;;;;;;;6.18;0.68;;;;;;;13.93;37.63;101123.59;5025919;28;20048;-67
2022/11/01 10:56:02;;;;;;;12.07;1.63;;;;;;;13.99;38.19;101138.22;5023197;28;20041;-65
2022/11/01 10:58:34;;;;;;;11.80;0.98;;;;;;;13.80;38.30;101138.25;5025658;28;20045;-66
2022/11/01 11:01:06;;;;;;;7.05;1.27;;;;;;;14.98;36.51;101127.75;5025045;28;20029;-69
2022/11/01 11:03:32;;;;;;;7.72;1.27;;;;;;;14.05;37.91;101132.63;5024357;28;20060;-66
2022/11/01 11:06:03;;;;;;;8.88;0.60;;;;;;;15.29;36.34;101125.25;5024386;28;20455;-66
2022/11/01 11:08:30;;;;;;;11.60;0.70;;;;;;;14.85;36.53;101136.38;5009899;28;20049;-69
2022/11/01 11:11:02;;;;;;;9.02;0.70;;;;;;;14.63;37.31;101129.63;5024666;28;20051;-66
2022/11/01 11:13:28;;;;;;;12.13;1.10;;;;;;;14.42;38.13;101157.06;5024698;28;20099;-65
2022/11/01 11:15:59;;;;;;;12.27;1.00;;;;;;;14.23;38.17;101136.97;5005947;28;20033;-66
2022/11/01 11:18:29;;;;;;;9.95;1.33;;;;;;;14.64;37.69;101146.28;5026583;28;20353;-67
2022/11/01 11:20:59;;;;;;;8.32;0.90;;;;;;;13.57;39.94;101155.16;5024118;28;20056;-68
2022/11/01 11:23:29;;;;;;;11.48;1.52;;;;;;;13.97;39.44;101154.03;5025190;28;20128;-66
2022/11/01 11:26:07;;;;;;;12.63;1.08;;;;;;;14.00;38.95;101160.94;5024366;28;20028;-66
2022/11/01 11:28:41;;;;;;;7.65;0.85;;;;;;;13.78;39.32;101148.84;5013464;28;20045;-67
2022/11/01 11:31:27;;;;;;;10.77;0.70;;;;;;;14.58;39.00;101160.59;5026771;28;20368;-65
2022/11/01 11:33:57;;;;;;;6.13;1.00;;;;;;;14.17;39.26;101165.34;5024476;28;20041;-67
2022/11/01 11:36:31;;;;;;;11.90;0.70;;;;;;;13.38;41.05;101161.22;5027632;28;20055;-67
2022/11/01 11:38:58;;;;;;;9.65;1.20;;;;;;;13.86;40.32;101161.63;5019575;28;20055;-66